createdAt,value
2023-01-28T00:00:25.997Z,1025.14
2023-01-28T00:01:25.998Z,1025.20
2023-01-28T00:02:25.955Z,1025.21
2023-01-28T00:03:25.963Z,1025.22
2023-01-28T00:04:25.926Z,1025.26
2023-01-28T00:05:25.951Z,1025.22
2023-01-28T00:06:25.941Z,1025.17
2023-01-28T00:07:25.916Z,1025.17
2023-01-28T00:08:25.901Z,1025.22
2023-01-28T00:09:25.884Z,1025.26
2023-01-28T00:10:25.859Z,1025.21
2023-01-28T00:11:25.882Z,1025.25
2023-01-28T00:12:25.824Z,1025.21
2023-01-28T00:13:25.843Z,1025.27
2023-01-28T00:14:25.821Z,1025.24
2023-01-28T00:15:25.834Z,1025.22
2023-01-28T00:16:25.895Z,1025.22
2023-01-28T00:17:25.813Z,1025.22
2023-01-28T00:18:25.745Z,1025.25
2023-01-28T00:19:25.748Z,1025.18
2023-01-28T00:20:25.733Z,1025.15
2023-01-28T00:21:25.732Z,1025.25
2023-01-28T00:22:25.712Z,1025.17
2023-01-28T00:23:25.727Z,1025.19
2023-01-28T00:24:25.782Z,1025.15
2023-01-28T00:25:25.703Z,1025.13
2023-01-28T00:26:25.660Z,1025.18
2023-01-28T00:27:25.653Z,1025.16
2023-01-28T00:28:25.653Z,1025.20
2023-01-28T00:29:25.622Z,1025.19
2023-01-28T00:30:25.617Z,1025.16
2023-01-28T00:31:25.621Z,1025.13
2023-01-28T00:32:25.593Z,1025.06
2023-01-28T00:33:25.607Z,1025.03
2023-01-28T00:34:25.548Z,1025.06
2023-01-28T00:35:25.550Z,1025.04
2023-01-28T00:36:25.545Z,1025.00
2023-01-28T00:37:25.527Z,1025.05
2023-01-28T00:38:25.498Z,1025.11
2023-01-28T00:39:25.524Z,1025.15
2023-01-28T00:40:25.484Z,1025.15
2023-01-28T00:41:25.484Z,1025.11
2023-01-28T00:43:23.668Z,1025.04
2023-01-28T00:44:23.739Z,1025.18
2023-01-28T00:45:25.545Z,1025.14
2023-01-28T00:46:23.801Z,1025.13
2023-01-28T00:47:23.631Z,1025.15
2023-01-28T00:48:23.707Z,1025.15
2023-01-28T00:49:23.630Z,1025.17
2023-01-28T00:50:23.593Z,1025.18
2023-01-28T00:51:23.612Z,1025.18
2023-01-28T00:52:23.617Z,1025.16
2023-01-28T00:53:23.606Z,1025.08
2023-01-28T00:54:23.617Z,1025.16
2023-01-28T00:55:23.526Z,1025.13
2023-01-28T00:56:23.531Z,1025.17
2023-01-28T00:57:23.526Z,1025.21
2023-01-28T00:58:23.511Z,1025.13
2023-01-28T00:59:23.470Z,1025.08
2023-01-28T01:00:23.461Z,1025.09
2023-01-28T01:01:23.509Z,1025.13
2023-01-28T01:02:23.567Z,1025.18
2023-01-28T01:03:23.430Z,1025.17
2023-01-28T01:04:23.399Z,1025.15
2023-01-28T01:05:23.407Z,1025.07
2023-01-28T01:06:23.386Z,1025.09
2023-01-28T01:07:23.452Z,1025.09
2023-01-28T01:08:23.390Z,1025.12
2023-01-28T01:09:23.355Z,1025.06
2023-01-28T01:10:23.344Z,1025.08
2023-01-28T01:11:23.345Z,1025.11
2023-01-28T01:12:23.353Z,1025.11
2023-01-28T01:13:23.305Z,1025.09
2023-01-28T01:14:23.306Z,1025.12
2023-01-28T01:15:23.275Z,1025.19
2023-01-28T01:16:23.261Z,1025.23
2023-01-28T01:17:23.278Z,1025.12
2023-01-28T01:18:23.220Z,1025.17
2023-01-28T01:19:23.223Z,1025.21
2023-01-28T01:20:23.230Z,1025.19
2023-01-28T01:21:23.223Z,1025.24
2023-01-28T01:22:23.229Z,1025.24
2023-01-28T01:23:23.235Z,1025.28
2023-01-28T01:24:23.201Z,1025.23
2023-01-28T01:25:23.171Z,1025.24
2023-01-28T01:26:23.141Z,1025.24
2023-01-28T01:27:23.165Z,1025.31
2023-01-28T01:28:23.110Z,1025.26
2023-01-28T01:29:23.141Z,1025.32
2023-01-28T01:30:23.098Z,1025.23
2023-01-28T01:31:23.211Z,1025.29
2023-01-28T01:32:23.077Z,1025.30
2023-01-28T01:33:23.074Z,1025.22
2023-01-28T01:34:23.023Z,1025.33
2023-01-28T01:35:23.011Z,1025.27
2023-01-28T01:36:23.026Z,1025.23
2023-01-28T01:37:23.021Z,1025.27
2023-01-28T01:38:22.965Z,1025.24
2023-01-28T01:39:22.996Z,1025.26
2023-01-28T01:40:23.061Z,1025.19
2023-01-28T01:41:22.986Z,1025.22
2023-01-28T01:42:22.934Z,1025.21
2023-01-28T01:43:22.975Z,1025.24
2023-01-28T01:44:22.888Z,1025.16
2023-01-28T01:45:22.914Z,1025.24
2023-01-28T01:46:22.988Z,1025.18
2023-01-28T01:47:22.859Z,1025.17
2023-01-28T01:48:22.891Z,1025.23
2023-01-28T01:49:22.858Z,1025.14
2023-01-28T01:50:22.841Z,1025.17
2023-01-28T01:51:22.845Z,1025.16
2023-01-28T01:52:22.796Z,1025.20
2023-01-28T01:53:22.869Z,1025.24
2023-01-28T01:54:22.756Z,1025.21
2023-01-28T01:55:22.792Z,1025.27
2023-01-28T01:56:22.760Z,1025.17
2023-01-28T01:57:22.801Z,1025.21
2023-01-28T01:58:22.751Z,1025.26
2023-01-28T01:59:22.716Z,1025.30
2023-01-28T02:00:22.675Z,1025.29
2023-01-28T02:01:22.704Z,1025.20
2023-01-28T02:02:22.799Z,1025.25
2023-01-28T02:03:22.742Z,1025.27
2023-01-28T02:04:22.631Z,1025.20
2023-01-28T02:05:22.657Z,1025.25
2023-01-28T02:06:22.629Z,1025.23
2023-01-28T02:07:22.730Z,1025.21
2023-01-28T02:08:22.637Z,1025.22
2023-01-28T02:09:22.573Z,1025.22
2023-01-28T02:10:22.548Z,1025.23
2023-01-28T02:11:22.550Z,1025.17
2023-01-28T02:12:22.521Z,1025.24
2023-01-28T02:13:22.563Z,1025.24
2023-01-28T02:14:30.893Z,1025.26
2023-01-28T02:15:23.499Z,1025.30
2023-01-28T02:16:22.603Z,1025.34
2023-01-28T02:17:22.480Z,1025.37
2023-01-28T02:18:22.447Z,1025.39
2023-01-28T02:19:22.517Z,1025.33
2023-01-28T02:20:22.469Z,1025.37
2023-01-28T02:21:22.436Z,1025.38
2023-01-28T02:22:22.418Z,1025.35
2023-01-28T02:23:22.396Z,1025.38
2023-01-28T02:24:22.411Z,1025.36
2023-01-28T02:25:22.502Z,1025.37
2023-01-28T02:26:22.493Z,1025.33
2023-01-28T02:27:22.371Z,1025.31
2023-01-28T02:28:22.352Z,1025.41
2023-01-28T02:29:22.326Z,1025.40
2023-01-28T02:30:22.313Z,1025.41
2023-01-28T02:31:22.413Z,1025.38
2023-01-28T02:32:22.294Z,1025.35
2023-01-28T02:33:22.293Z,1025.37
2023-01-28T02:34:22.236Z,1025.48
2023-01-28T02:35:22.267Z,1025.44
2023-01-28T02:36:22.244Z,1025.48
2023-01-28T02:37:22.219Z,1025.43
2023-01-28T02:38:22.231Z,1025.37
2023-01-28T02:39:22.226Z,1025.42
2023-01-28T02:40:22.280Z,1025.39
2023-01-28T02:41:22.163Z,1025.39
2023-01-28T02:42:22.180Z,1025.46
2023-01-28T02:43:22.134Z,1025.40
2023-01-28T02:44:22.137Z,1025.42
2023-01-28T02:45:22.118Z,1025.41
2023-01-28T02:46:22.261Z,1025.39
2023-01-28T02:47:22.098Z,1025.37
2023-01-28T02:48:22.079Z,1025.47
2023-01-28T02:49:22.072Z,1025.49
2023-01-28T02:50:22.039Z,1025.50
2023-01-28T02:51:22.058Z,1025.48
2023-01-28T02:52:22.011Z,1025.49
2023-01-28T02:53:22.050Z,1025.57
2023-01-28T02:54:22.017Z,1025.48
2023-01-28T02:55:21.989Z,1025.50
2023-01-28T02:56:21.974Z,1025.45
2023-01-28T02:57:21.986Z,1025.58
2023-01-28T02:58:21.955Z,1025.59
2023-01-28T02:59:22.252Z,1025.63
2023-01-28T03:00:21.959Z,1025.70
2023-01-28T03:01:22.014Z,1025.69
2023-01-28T03:02:21.909Z,1025.62
2023-01-28T03:03:21.914Z,1025.64
2023-01-28T03:04:21.910Z,1025.70
2023-01-28T03:05:21.941Z,1025.69
2023-01-28T03:06:21.827Z,1025.78
2023-01-28T03:07:21.876Z,1025.71
2023-01-28T03:08:21.802Z,1025.74
2023-01-28T03:09:21.843Z,1025.79
2023-01-28T03:10:21.787Z,1025.77
2023-01-28T03:11:21.802Z,1025.74
2023-01-28T03:12:21.763Z,1025.76
2023-01-28T03:13:21.757Z,1025.75
2023-01-28T03:14:21.746Z,1025.78
2023-01-28T03:15:21.748Z,1025.70
2023-01-28T03:16:21.702Z,1025.72
2023-01-28T03:17:21.752Z,1025.77
2023-01-28T03:18:21.694Z,1025.77
2023-01-28T03:19:21.723Z,1025.77
2023-01-28T03:20:21.699Z,1025.77
2023-01-28T03:21:21.659Z,1025.78
2023-01-28T03:22:21.661Z,1025.78
2023-01-28T03:23:21.640Z,1025.74
2023-01-28T03:24:21.633Z,1025.67
2023-01-28T03:25:21.632Z,1025.72
2023-01-28T03:26:21.592Z,1025.68
2023-01-28T03:27:21.571Z,1025.70
2023-01-28T03:28:21.604Z,1025.66
2023-01-28T03:29:21.621Z,1025.70
2023-01-28T03:30:21.548Z,1025.72
2023-01-28T03:31:21.573Z,1025.70
2023-01-28T03:32:21.574Z,1025.67
2023-01-28T03:33:21.546Z,1025.69
2023-01-28T03:34:21.473Z,1025.71
2023-01-28T03:35:21.490Z,1025.72
2023-01-28T03:36:21.464Z,1025.70
2023-01-28T03:37:21.497Z,1025.71
2023-01-28T03:38:21.425Z,1025.71
2023-01-28T03:39:21.462Z,1025.72
2023-01-28T03:40:21.423Z,1025.72
2023-01-28T03:41:21.426Z,1025.68
2023-01-28T03:42:21.407Z,1025.77
2023-01-28T03:43:21.450Z,1025.66
2023-01-28T03:44:21.339Z,1025.66
2023-01-28T03:45:21.409Z,1025.65
2023-01-28T03:46:21.366Z,1025.74
2023-01-28T03:47:21.320Z,1025.64
2023-01-28T03:48:21.352Z,1025.68
2023-01-28T03:49:21.286Z,1025.72
2023-01-28T03:50:21.264Z,1025.70
2023-01-28T03:51:21.290Z,1025.69
2023-01-28T03:52:21.286Z,1025.68
2023-01-28T03:53:21.273Z,1025.70
2023-01-28T03:54:21.245Z,1025.70
2023-01-28T03:55:21.263Z,1025.79
2023-01-28T03:56:21.194Z,1025.82
2023-01-28T03:57:21.212Z,1025.80
2023-01-28T03:58:21.186Z,1025.75
2023-01-28T03:59:21.200Z,1025.72
2023-01-28T04:00:21.168Z,1025.74
2023-01-28T04:01:21.262Z,1025.77
2023-01-28T04:02:21.133Z,1025.82
2023-01-28T04:03:21.168Z,1025.78
2023-01-28T04:04:21.130Z,1025.78
2023-01-28T04:05:21.150Z,1025.80
2023-01-28T04:06:21.097Z,1025.76
2023-01-28T04:07:21.094Z,1025.83
2023-01-28T04:08:21.067Z,1025.88
2023-01-28T04:09:21.070Z,1025.86
2023-01-28T04:10:21.032Z,1025.80
2023-01-28T04:11:21.027Z,1025.90
2023-01-28T04:12:21.017Z,1025.83
2023-01-28T04:13:20.982Z,1025.90
2023-01-28T04:14:20.960Z,1025.87
2023-01-28T04:15:20.997Z,1025.82
2023-01-28T04:16:20.969Z,1025.87
2023-01-28T04:17:20.985Z,1025.87
2023-01-28T04:18:20.958Z,1025.84
2023-01-28T04:19:20.937Z,1025.82
2023-01-28T04:20:20.905Z,1025.83
2023-01-28T04:21:20.920Z,1025.86
2023-01-28T04:22:20.915Z,1025.84
2023-01-28T04:23:20.920Z,1025.89
2023-01-28T04:24:20.860Z,1025.90
2023-01-28T04:25:20.867Z,1025.90
2023-01-28T04:26:20.826Z,1025.88
2023-01-28T04:27:20.825Z,1025.92
2023-01-28T04:28:20.776Z,1025.98
2023-01-28T04:29:20.777Z,1025.98
2023-01-28T04:30:20.861Z,1025.93
2023-01-28T04:31:20.857Z,1025.93
2023-01-28T04:32:20.716Z,1025.91
2023-01-28T04:33:20.760Z,1025.94
2023-01-28T04:34:20.724Z,1025.92
2023-01-28T04:35:20.695Z,1025.95
2023-01-28T04:36:20.743Z,1025.95
2023-01-28T04:37:20.709Z,1025.97
2023-01-28T04:38:20.645Z,1026.00
2023-01-28T04:39:20.671Z,1025.99
2023-01-28T04:40:20.655Z,1025.98
2023-01-28T04:41:20.632Z,1026.05
2023-01-28T04:42:20.631Z,1026.05
2023-01-28T04:43:20.622Z,1026.09
2023-01-28T04:44:20.574Z,1026.10
2023-01-28T04:45:20.576Z,1026.10
2023-01-28T04:46:20.595Z,1026.10
2023-01-28T04:47:20.611Z,1026.07
2023-01-28T04:48:20.544Z,1026.12
2023-01-28T04:49:20.528Z,1026.16
2023-01-28T04:50:20.537Z,1026.13
2023-01-28T04:51:20.517Z,1026.14
2023-01-28T04:52:20.518Z,1026.18
2023-01-28T04:53:20.508Z,1026.15
2023-01-28T04:54:20.469Z,1026.14
2023-01-28T04:55:20.471Z,1026.13
2023-01-28T04:56:20.449Z,1026.13
2023-01-28T04:57:20.413Z,1026.16
2023-01-28T04:58:20.400Z,1026.14
2023-01-28T04:59:20.434Z,1026.12
2023-01-28T05:00:20.358Z,1026.17
2023-01-28T05:01:20.363Z,1026.13
2023-01-28T05:02:20.425Z,1026.12
2023-01-28T05:03:20.366Z,1026.11
2023-01-28T05:04:20.309Z,1026.10
2023-01-28T05:05:20.347Z,1026.08
2023-01-28T05:06:20.284Z,1026.12
2023-01-28T05:07:20.287Z,1026.07
2023-01-28T05:08:20.255Z,1026.13
2023-01-28T05:09:20.267Z,1026.13
2023-01-28T05:10:20.519Z,1026.13
2023-01-28T05:11:20.236Z,1026.10
2023-01-28T05:12:20.207Z,1026.16
2023-01-28T05:13:20.233Z,1026.10
2023-01-28T05:14:20.203Z,1026.15
2023-01-28T05:15:20.186Z,1026.13
2023-01-28T05:16:20.201Z,1026.11
2023-01-28T05:17:20.267Z,1026.11
2023-01-28T05:18:20.163Z,1026.12
2023-01-28T05:19:20.117Z,1026.14
2023-01-28T05:20:20.141Z,1026.10
2023-01-28T05:21:20.092Z,1026.17
2023-01-28T05:22:20.098Z,1026.18
2023-01-28T05:23:20.110Z,1026.12
2023-01-28T05:24:20.113Z,1026.14
2023-01-28T05:25:20.090Z,1026.11
2023-01-28T05:26:20.043Z,1026.14
2023-01-28T05:27:20.034Z,1026.15
2023-01-28T05:28:20.024Z,1026.08
2023-01-28T05:29:20.039Z,1026.09
2023-01-28T05:30:20.060Z,1026.11
2023-01-28T05:31:20.003Z,1026.14
2023-01-28T05:32:20.007Z,1026.12
2023-01-28T05:33:20.000Z,1026.11
2023-01-28T05:34:19.985Z,1026.17
2023-01-28T05:35:19.943Z,1026.14
2023-01-28T05:36:19.996Z,1026.13
2023-01-28T05:37:19.904Z,1026.12
2023-01-28T05:38:19.939Z,1026.11
2023-01-28T05:39:19.914Z,1026.10
2023-01-28T05:40:19.890Z,1026.10
2023-01-28T05:41:19.893Z,1026.05
2023-01-28T05:42:19.837Z,1026.08
2023-01-28T05:43:19.828Z,1026.12
2023-01-28T05:44:20.451Z,1026.13
2023-01-28T05:45:19.900Z,1026.09
2023-01-28T05:46:19.804Z,1026.15
2023-01-28T05:47:19.823Z,1026.08
2023-01-28T05:48:19.754Z,1026.14
2023-01-28T05:49:19.739Z,1026.14
2023-01-28T05:50:19.756Z,1026.17
2023-01-28T05:51:19.747Z,1026.17
2023-01-28T05:52:19.717Z,1026.15
2023-01-28T05:53:19.683Z,1026.18
2023-01-28T05:54:19.677Z,1026.17
2023-01-28T05:55:20.829Z,1026.18
2023-01-28T05:56:19.969Z,1026.28
2023-01-28T05:57:19.660Z,1026.26
2023-01-28T05:58:19.656Z,1026.29
2023-01-28T05:59:19.626Z,1026.29
2023-01-28T06:00:19.622Z,1026.32
2023-01-28T06:01:19.613Z,1026.29
2023-01-28T06:02:19.623Z,1026.28
2023-01-28T06:03:19.599Z,1026.30
2023-01-28T06:04:19.573Z,1026.36
2023-01-28T06:05:19.597Z,1026.45
2023-01-28T06:06:19.552Z,1026.40
2023-01-28T06:07:19.527Z,1026.48
2023-01-28T06:08:19.496Z,1026.49
2023-01-28T06:09:19.503Z,1026.51
2023-01-28T06:10:19.467Z,1026.52
2023-01-28T06:11:19.973Z,1026.49
2023-01-28T06:12:19.471Z,1026.48
2023-01-28T06:13:19.421Z,1026.52
2023-01-28T06:14:19.455Z,1026.46
2023-01-28T06:15:19.402Z,1026.43
2023-01-28T06:16:19.423Z,1026.50
2023-01-28T06:17:19.363Z,1026.45
2023-01-28T06:18:19.363Z,1026.52
2023-01-28T06:19:19.366Z,1026.51
2023-01-28T06:20:19.384Z,1026.52
2023-01-28T06:21:19.312Z,1026.54
2023-01-28T06:22:19.319Z,1026.48
2023-01-28T06:23:19.323Z,1026.48
2023-01-28T06:24:19.411Z,1026.47
2023-01-28T06:25:19.300Z,1026.49
2023-01-28T06:26:19.305Z,1026.50
2023-01-28T06:27:19.237Z,1026.50
2023-01-28T06:28:19.264Z,1026.51
2023-01-28T06:29:19.246Z,1026.51
2023-01-28T06:30:19.217Z,1026.52
2023-01-28T06:31:19.236Z,1026.57
2023-01-28T06:32:19.283Z,1026.52
2023-01-28T06:33:19.187Z,1026.58
2023-01-28T06:34:19.158Z,1026.56
2023-01-28T06:35:19.136Z,1026.51
2023-01-28T06:36:19.199Z,1026.60
2023-01-28T06:37:19.106Z,1026.57
2023-01-28T06:38:19.184Z,1026.55
2023-01-28T06:39:19.085Z,1026.58
2023-01-28T06:40:19.191Z,1026.59
2023-01-28T06:41:19.112Z,1026.42
2023-01-28T06:42:19.079Z,1026.50
2023-01-28T06:43:26.601Z,1026.38
2023-01-28T06:44:19.888Z,1026.47
2023-01-28T06:45:19.034Z,1026.41
2023-01-28T06:46:19.076Z,1026.48
2023-01-28T06:47:18.999Z,1026.53
2023-01-28T06:48:19.007Z,1026.48
2023-01-28T06:49:18.969Z,1026.48
2023-01-28T06:50:18.984Z,1026.51
2023-01-28T06:51:18.958Z,1026.48
2023-01-28T06:52:18.958Z,1026.48
2023-01-28T06:53:18.906Z,1026.48
2023-01-28T06:54:18.912Z,1026.54
2023-01-28T06:55:18.904Z,1026.59
2023-01-28T06:56:18.907Z,1026.58
2023-01-28T06:57:18.852Z,1026.58
2023-01-28T06:58:18.880Z,1026.60
2023-01-28T06:59:18.851Z,1026.62
2023-01-28T07:00:19.102Z,1026.61
2023-01-28T07:01:18.833Z,1026.63
2023-01-28T07:02:18.796Z,1026.66
2023-01-28T07:03:18.885Z,1026.64
2023-01-28T07:04:18.820Z,1026.68
2023-01-28T07:05:18.774Z,1026.56
2023-01-28T07:06:18.772Z,1026.65
2023-01-28T07:07:18.745Z,1026.58
2023-01-28T07:08:18.752Z,1026.59
2023-01-28T07:09:18.695Z,1026.67
2023-01-28T07:10:18.763Z,1026.70
2023-01-28T07:11:18.675Z,1026.68
2023-01-28T07:12:18.677Z,1026.65
2023-01-28T07:13:18.669Z,1026.69
2023-01-28T07:14:18.652Z,1026.67
2023-01-28T07:15:18.655Z,1026.73
2023-01-28T07:16:18.658Z,1026.70
2023-01-28T07:17:18.637Z,1026.74
2023-01-28T07:18:18.599Z,1026.72
2023-01-28T07:19:18.571Z,1026.72
2023-01-28T07:20:18.930Z,1026.71
2023-01-28T07:21:18.588Z,1026.66
2023-01-28T07:22:18.540Z,1026.63
2023-01-28T07:23:18.550Z,1026.58
2023-01-28T07:24:18.605Z,1026.53
2023-01-28T07:25:18.516Z,1026.63
2023-01-28T07:26:18.558Z,1026.61
2023-01-28T07:27:18.464Z,1026.62
2023-01-28T07:28:18.460Z,1026.64
2023-01-28T07:29:18.440Z,1026.64
2023-01-28T07:30:18.620Z,1026.68
2023-01-28T07:31:18.510Z,1026.63
2023-01-28T07:32:18.417Z,1026.64
2023-01-28T07:33:18.414Z,1026.66
2023-01-28T07:34:18.422Z,1026.67
2023-01-28T07:35:18.357Z,1026.70
2023-01-28T07:36:18.388Z,1026.65
2023-01-28T07:37:18.354Z,1026.68
2023-01-28T07:38:18.343Z,1026.57
2023-01-28T07:39:18.319Z,1026.62
2023-01-28T07:40:18.320Z,1026.61
2023-01-28T07:41:18.315Z,1026.60
2023-01-28T07:42:18.316Z,1026.59
2023-01-28T07:43:18.305Z,1026.58
2023-01-28T07:44:18.265Z,1026.64
2023-01-28T07:45:18.234Z,1026.65
2023-01-28T07:46:18.246Z,1026.62
2023-01-28T07:47:18.230Z,1026.63
2023-01-28T07:48:18.241Z,1026.63
2023-01-28T07:49:18.234Z,1026.61
2023-01-28T07:50:18.210Z,1026.59
2023-01-28T07:51:18.151Z,1026.61
2023-01-28T07:52:18.191Z,1026.68
2023-01-28T07:53:18.134Z,1026.72
2023-01-28T07:54:18.151Z,1026.72
2023-01-28T07:55:18.110Z,1026.70
2023-01-28T07:56:18.129Z,1026.70
2023-01-28T07:57:18.073Z,1026.69
2023-01-28T07:58:18.124Z,1026.76
2023-01-28T07:59:18.072Z,1026.65
2023-01-28T08:00:18.053Z,1026.66
2023-01-28T08:01:18.192Z,1026.67
2023-01-28T08:02:18.063Z,1026.70
2023-01-28T08:03:18.028Z,1026.69
2023-01-28T08:04:18.119Z,1026.73
2023-01-28T08:05:18.217Z,1026.81
2023-01-28T08:06:18.017Z,1026.86
2023-01-28T08:07:17.981Z,1026.88
2023-01-28T08:08:18.026Z,1026.85
2023-01-28T08:09:17.928Z,1026.93
2023-01-28T08:10:18.196Z,1026.85
2023-01-28T08:11:17.936Z,1026.86
2023-01-28T08:12:17.916Z,1026.95
2023-01-28T08:13:17.913Z,1026.94
2023-01-28T08:14:17.892Z,1027.00
2023-01-28T08:15:17.868Z,1027.06
2023-01-28T08:16:17.930Z,1027.05
2023-01-28T08:17:17.887Z,1027.02
2023-01-28T08:18:17.833Z,1027.03
2023-01-28T08:19:17.787Z,1027.05
2023-01-28T08:20:18.130Z,1026.97
2023-01-28T08:21:17.783Z,1027.00
2023-01-28T08:22:17.793Z,1027.02
2023-01-28T08:23:17.778Z,1027.07
2023-01-28T08:24:17.830Z,1027.02
2023-01-28T08:25:17.705Z,1027.02
2023-01-28T08:26:17.741Z,1027.02
2023-01-28T08:27:17.721Z,1027.03
2023-01-28T08:28:17.702Z,1026.99
2023-01-28T08:29:17.708Z,1026.99
2023-01-28T08:30:18.011Z,1027.05
2023-01-28T08:31:17.739Z,1027.08
2023-01-28T08:32:17.636Z,1027.15
2023-01-28T08:33:17.611Z,1027.15
2023-01-28T08:34:17.693Z,1027.19
2023-01-28T08:35:17.611Z,1027.12
2023-01-28T08:36:17.584Z,1027.16
2023-01-28T08:37:17.589Z,1027.14
2023-01-28T08:38:17.558Z,1027.17
2023-01-28T08:39:17.568Z,1027.17
2023-01-28T08:40:18.011Z,1027.17
2023-01-28T08:41:17.518Z,1027.12
2023-01-28T08:42:17.535Z,1027.22
2023-01-28T08:43:17.480Z,1027.16
2023-01-28T08:44:17.507Z,1027.26
2023-01-28T08:45:17.475Z,1027.22
2023-01-28T08:46:17.510Z,1027.18
2023-01-28T08:47:17.466Z,1027.22
2023-01-28T08:48:17.482Z,1027.20
2023-01-28T08:49:17.408Z,1027.32
2023-01-28T08:50:17.540Z,1027.26
2023-01-28T08:51:17.425Z,1027.29
2023-01-28T08:52:17.396Z,1027.30
2023-01-28T08:53:17.376Z,1027.29
2023-01-28T08:54:17.377Z,1027.31
2023-01-28T08:55:17.355Z,1027.35
2023-01-28T08:56:17.363Z,1027.34
2023-01-28T08:57:17.318Z,1027.29
2023-01-28T08:58:17.303Z,1027.44
2023-01-28T08:59:17.288Z,1027.35
2023-01-28T09:00:17.561Z,1027.39
2023-01-28T09:01:17.282Z,1027.43
2023-01-28T09:02:30.790Z,1027.38
2023-01-28T09:03:18.261Z,1027.37
2023-01-28T09:04:17.252Z,1027.39
2023-01-28T09:05:17.222Z,1027.36
2023-01-28T09:06:17.239Z,1027.41
2023-01-28T09:07:17.184Z,1027.43
2023-01-28T09:08:17.198Z,1027.41
2023-01-28T09:09:17.146Z,1027.40
2023-01-28T09:10:17.596Z,1027.43
2023-01-28T09:11:17.157Z,1027.44
2023-01-28T09:12:17.142Z,1027.37
2023-01-28T09:13:17.144Z,1027.49
2023-01-28T09:14:17.105Z,1027.46
2023-01-28T09:15:17.072Z,1027.61
2023-01-28T09:16:17.098Z,1027.54
2023-01-28T09:17:17.055Z,1027.52
2023-01-28T09:18:17.062Z,1027.57
2023-01-28T09:19:17.039Z,1027.62
2023-01-28T09:20:17.436Z,1027.55
2023-01-28T09:21:17.006Z,1027.67
2023-01-28T09:22:17.005Z,1027.70
2023-01-28T09:23:16.975Z,1027.71
2023-01-28T09:24:17.021Z,1027.79
2023-01-28T09:25:16.943Z,1027.76
2023-01-28T09:26:16.968Z,1027.81
2023-01-28T09:27:16.925Z,1027.78
2023-01-28T09:28:16.921Z,1027.82
2023-01-28T09:29:16.928Z,1027.85
2023-01-28T09:30:17.344Z,1027.78
2023-01-28T09:31:17.002Z,1027.81
2023-01-28T09:32:16.889Z,1027.85
2023-01-28T09:33:16.851Z,1027.90
2023-01-28T09:34:16.832Z,1027.91
2023-01-28T09:35:16.854Z,1027.87
2023-01-28T09:36:16.809Z,1027.95
2023-01-28T09:37:16.801Z,1027.92
2023-01-28T09:38:16.813Z,1027.93
2023-01-28T09:39:16.815Z,1027.89
2023-01-28T09:40:17.022Z,1027.91
2023-01-28T09:41:16.766Z,1027.94
2023-01-28T09:42:16.747Z,1027.89
2023-01-28T09:43:16.725Z,1027.89
2023-01-28T09:44:16.704Z,1027.89
2023-01-28T09:45:16.737Z,1027.91
2023-01-28T09:46:16.716Z,1027.95
2023-01-28T09:47:16.692Z,1027.93
2023-01-28T09:48:16.769Z,1027.94
2023-01-28T09:49:16.643Z,1028.02
2023-01-28T09:50:17.031Z,1028.03
2023-01-28T09:51:16.651Z,1028.00
2023-01-28T09:52:16.641Z,1028.00
2023-01-28T09:53:16.624Z,1028.07
2023-01-28T09:54:16.565Z,1028.00
2023-01-28T09:55:16.599Z,1027.98
2023-01-28T09:56:16.537Z,1027.92
2023-01-28T09:57:16.583Z,1027.99
2023-01-28T09:58:16.531Z,1028.00
2023-01-28T09:59:16.511Z,1028.06
2023-01-28T10:00:17.114Z,1028.08
2023-01-28T10:01:16.539Z,1028.10
2023-01-28T10:02:16.498Z,1028.05
2023-01-28T10:03:16.492Z,1028.00
2023-01-28T10:04:16.439Z,1028.03
2023-01-28T10:05:16.433Z,1027.99
2023-01-28T10:06:16.447Z,1027.95
2023-01-28T10:07:16.417Z,1028.04
2023-01-28T10:08:16.423Z,1027.99
2023-01-28T10:09:16.410Z,1028.05
2023-01-28T10:10:16.798Z,1028.08
2023-01-28T10:11:16.394Z,1028.12
2023-01-28T10:12:16.366Z,1028.07
2023-01-28T10:13:16.365Z,1028.12
2023-01-28T10:14:16.353Z,1028.03
2023-01-28T10:15:16.328Z,1028.00
2023-01-28T10:16:16.324Z,1027.99
2023-01-28T10:17:16.315Z,1027.99
2023-01-28T10:18:18.185Z,1027.99
2023-01-28T10:19:17.185Z,1028.06
2023-01-28T10:20:16.698Z,1028.00
2023-01-28T10:21:16.278Z,1028.02
2023-01-28T10:22:16.209Z,1028.02
2023-01-28T10:23:16.231Z,1028.04
2023-01-28T10:24:16.211Z,1028.02
2023-01-28T10:25:16.182Z,1028.08
2023-01-28T10:26:16.197Z,1028.00
2023-01-28T10:27:16.193Z,1028.06
2023-01-28T10:28:16.164Z,1028.04
2023-01-28T10:29:16.163Z,1028.03
2023-01-28T10:30:16.466Z,1028.07
2023-01-28T10:31:16.273Z,1027.98
2023-01-28T10:32:16.112Z,1027.93
2023-01-28T10:33:16.123Z,1027.96
2023-01-28T10:34:17.848Z,1027.93
2023-01-28T10:35:16.055Z,1027.97
2023-01-28T10:36:16.062Z,1028.01
2023-01-28T10:37:16.052Z,1027.94
2023-01-28T10:38:16.029Z,1027.94
2023-01-28T10:39:16.029Z,1027.96
2023-01-28T10:40:16.337Z,1027.96
2023-01-28T10:41:15.982Z,1027.93
2023-01-28T10:42:15.969Z,1027.91
2023-01-28T10:43:15.969Z,1027.99
2023-01-28T10:44:15.940Z,1027.95
2023-01-28T10:45:15.946Z,1027.93
2023-01-28T10:46:16.012Z,1027.99
2023-01-28T10:47:15.932Z,1028.04
2023-01-28T10:48:15.895Z,1028.02
2023-01-28T10:49:15.896Z,1028.01
2023-01-28T10:50:16.350Z,1028.03
2023-01-28T10:51:15.851Z,1028.02
2023-01-28T10:52:15.890Z,1027.95
2023-01-28T10:53:15.821Z,1027.88
2023-01-28T10:54:15.817Z,1027.87
2023-01-28T10:55:15.799Z,1027.86
2023-01-28T10:56:15.806Z,1027.90
2023-01-28T10:57:15.785Z,1027.95
2023-01-28T10:58:15.762Z,1027.91
2023-01-28T10:59:15.737Z,1027.95
2023-01-28T11:00:15.970Z,1027.95
2023-01-28T11:01:15.793Z,1027.89
2023-01-28T11:02:15.695Z,1027.95
2023-01-28T11:03:15.735Z,1028.02
2023-01-28T11:04:15.694Z,1028.03
2023-01-28T11:05:15.698Z,1028.02
2023-01-28T11:06:15.637Z,1028.00
2023-01-28T11:07:15.646Z,1027.99
2023-01-28T11:08:15.658Z,1028.02
2023-01-28T11:09:15.615Z,1027.93
2023-01-28T11:10:16.003Z,1028.02
2023-01-28T11:11:15.672Z,1027.97
2023-01-28T11:12:15.556Z,1028.02
2023-01-28T11:13:15.589Z,1027.98
2023-01-28T11:14:15.538Z,1028.04
2023-01-28T11:15:16.040Z,1028.01
2023-01-28T11:16:15.558Z,1028.03
2023-01-28T11:17:15.519Z,1027.96
2023-01-28T11:18:15.540Z,1027.97
2023-01-28T11:19:15.557Z,1027.95
2023-01-28T11:20:15.785Z,1028.04
2023-01-28T11:21:15.467Z,1028.00
2023-01-28T11:22:15.435Z,1028.04
2023-01-28T11:23:15.422Z,1028.01
2023-01-28T11:24:15.491Z,1028.00
2023-01-28T11:25:15.437Z,1027.98
2023-01-28T11:26:15.408Z,1028.00
2023-01-28T11:27:15.394Z,1028.00
2023-01-28T11:28:15.370Z,1027.97
2023-01-28T11:29:15.388Z,1027.95
2023-01-28T11:30:15.782Z,1027.98
2023-01-28T11:31:15.384Z,1027.93
2023-01-28T11:32:15.301Z,1027.98
2023-01-28T11:33:15.363Z,1028.08
2023-01-28T11:34:15.281Z,1028.04
2023-01-28T11:35:15.290Z,1028.03
2023-01-28T11:36:15.298Z,1028.03
2023-01-28T11:37:15.258Z,1028.04
2023-01-28T11:38:15.256Z,1028.12
2023-01-28T11:39:15.253Z,1028.10
2023-01-28T11:40:16.842Z,1028.15
2023-01-28T11:41:15.219Z,1028.15
2023-01-28T11:42:15.224Z,1028.16
2023-01-28T11:43:15.178Z,1028.13
2023-01-28T11:44:15.197Z,1028.13
2023-01-28T11:45:15.147Z,1028.14
2023-01-28T11:46:15.201Z,1028.09
2023-01-28T11:47:15.155Z,1028.05
2023-01-28T11:48:15.107Z,1028.10
2023-01-28T11:49:15.094Z,1028.16
2023-01-28T11:50:15.536Z,1028.09
2023-01-28T11:51:15.093Z,1028.04
2023-01-28T11:52:15.124Z,1028.08
2023-01-28T11:53:16.964Z,1028.07
2023-01-28T11:54:15.052Z,1028.03
2023-01-28T11:55:15.029Z,1028.10
2023-01-28T11:56:14.998Z,1028.04
2023-01-28T11:57:15.039Z,1028.10
2023-01-28T11:58:14.974Z,1028.11
2023-01-28T11:59:14.974Z,1028.06
2023-01-28T12:00:16.546Z,1028.05
2023-01-28T12:01:14.973Z,1028.11
2023-01-28T12:02:14.990Z,1027.96
2023-01-28T12:03:14.942Z,1028.02
2023-01-28T12:04:14.909Z,1027.98
2023-01-28T12:05:14.890Z,1027.91
2023-01-28T12:06:14.868Z,1027.94